Time;durP1;ratioP1;P1;durP2;ratioP2;P2;SDS_P1;SDS_P2;PMS_P1;PMS_P2;Temp;Humidity;BMP_temperature;BMP_pressure;BME280_temperature;BME280_humidity;BME280_pressure;Samples;Min_cycle;Max_cycle;Signal;HPM_P1;HPM_P2
2022/01/12 00:01:22;;;;;;;3.13;1.70;;;;;;;-3.20;100.00;97753.38;5005699;28;20301;-88
2022/01/12 00:03:49;;;;;;;2.40;1.60;;;;;;;-3.24;100.00;97746.66;5007106;28;20213;-88
2022/01/12 00:06:16;;;;;;;2.20;1.53;;;;;;;-3.15;100.00;97756.53;5003993;28;20202;-89
2022/01/12 00:08:43;;;;;;;1.93;1.50;;;;;;;-3.17;100.00;97754.97;5007517;28;20238;-89
2022/01/12 00:11:10;;;;;;;2.90;1.43;;;;;;;-3.19;100.00;97756.88;5020196;28;20216;-89
2022/01/12 00:13:39;;;;;;;2.27;1.27;;;;;;;-3.27;100.00;97762.72;5004855;28;20294;-87
2022/01/12 00:16:08;;;;;;;1.53;1.20;;;;;;;-3.39;100.00;97754.81;5009536;28;20554;-86
2022/01/12 00:18:35;;;;;;;1.43;1.10;;;;;;;-3.44;100.00;97752.50;5009193;28;20208;-88
2022/01/12 00:21:03;;;;;;;2.87;1.30;;;;;;;-3.46;100.00;97744.69;5018203;28;20216;-89
2022/01/12 00:23:30;;;;;;;2.33;1.07;;;;;;;-3.44;100.00;97747.22;5003743;28;20206;-89
2022/01/12 00:26:02;;;;;;;2.27;1.50;;;;;;;-3.41;100.00;97749.66;5010028;28;20212;-87
2022/01/12 00:34:06;;;;;;;2.40;1.40;;;;;;;-3.36;100.00;97744.88;5001591;28;20222;-88
2022/01/12 00:36:33;;;;;;;1.20;1.10;;;;;;;-3.36;100.00;97723.75;5008167;28;20192;-87
2022/01/12 00:39:03;;;;;;;1.43;1.13;;;;;;;-3.38;100.00;97733.56;5007902;28;20209;-89
2022/01/12 00:41:30;;;;;;;1.70;1.20;;;;;;;-3.42;100.00;97729.47;5007092;28;20302;-89
2022/01/12 00:43:59;;;;;;;1.30;1.20;;;;;;;-3.56;100.00;97717.25;5009719;28;20211;-88
2022/01/12 00:46:30;;;;;;;2.03;1.23;;;;;;;-3.56;100.00;97726.97;5000491;28;20222;-88
2022/01/12 00:48:59;;;;;;;2.00;1.23;;;;;;;-3.52;100.00;97728.44;5005251;28;20211;-88
2022/01/12 00:51:31;;;;;;;1.83;1.30;;;;;;;-141.59;100.00;61776.25;5008686;28;20218;-87
2022/01/12 00:53:59;;;;;;;1.60;1.13;;;;;;;-141.59;100.00;61776.25;5002595;28;20212;-88
2022/01/12 00:56:26;;;;;;;1.50;1.20;;;;;;;-141.59;100.00;61776.25;5005471;28;20235;-87
2022/01/12 00:58:53;;;;;;;2.30;1.30;;;;;;;-141.59;100.00;61776.25;5006420;28;20242;-88
2022/01/12 01:01:23;;;;;;;1.17;1.00;;;;;;;-141.59;100.00;61776.25;5007000;28;20206;-87
2022/01/12 01:03:53;;;;;;;1.80;1.40;;;;;;;-141.59;100.00;61776.25;5001845;28;20209;-86
2022/01/12 01:06:21;;;;;;;2.40;0.90;;;;;;;-141.59;100.00;61776.25;5014904;28;20211;-88
2022/01/12 01:08:51;;;;;;;2.73;1.10;;;;;;;-141.59;100.00;61776.25;5004381;28;20205;-84
2022/01/12 01:11:21;;;;;;;1.80;0.97;;;;;;;-141.59;100.00;61776.25;5005072;28;20207;-83
2022/01/12 01:13:57;;;;;;;1.03;0.90;;;;;;;-141.59;100.00;61776.25;5004768;28;20204;-83
2022/01/12 01:16:30;;;;;;;1.97;1.20;;;;;;;-141.59;100.00;61776.25;4995913;28;20208;-83
2022/01/12 01:27:12;;;;;;;1.40;0.90;;;;;;;-141.59;100.00;61776.25;5023460;28;20207;-83
2022/01/12 01:29:39;;;;;;;2.07;1.10;;;;;;;-141.59;100.00;61776.25;5005847;28;20316;-83
2022/01/12 01:32:08;;;;;;;1.20;1.00;;;;;;;-141.59;100.00;61776.25;5002163;28;20211;-83
2022/01/12 01:34:43;;;;;;;0.93;0.87;;;;;;;-141.59;100.00;61776.25;4994506;28;20222;-83
2022/01/12 01:37:12;;;;;;;1.93;1.10;;;;;;;-141.59;100.00;61776.25;4999792;28;20256;-83
2022/01/12 01:39:39;;;;;;;2.83;1.10;;;;;;;-141.59;100.00;61776.25;4992699;28;20212;-83
2022/01/12 01:42:16;;;;;;;1.07;0.97;;;;;;;-141.59;100.00;61776.25;5002135;28;20291;-83
2022/01/12 01:53:21;;;;;;;1.63;1.00;;;;;;;-141.59;100.00;61776.25;5005076;28;20210;-83
2022/01/12 01:55:48;;;;;;;1.53;1.00;;;;;;;-141.59;100.00;61776.25;5002911;28;20243;-82
2022/01/12 01:58:16;;;;;;;1.30;1.10;;;;;;;-141.59;100.00;61776.25;4996607;28;20208;-83
2022/01/12 02:00:43;;;;;;;1.30;1.10;;;;;;;-141.59;100.00;61776.25;5023291;28;20206;-82
2022/01/12 02:03:17;;;;;;;1.13;1.03;;;;;;;-141.59;100.00;61776.25;5000514;28;20216;-83
2022/01/12 02:05:49;;;;;;;1.13;0.70;;;;;;;-141.59;100.00;61776.25;5001284;28;20203;-83
2022/01/12 02:08:17;;;;;;;1.57;1.00;;;;;;;-141.59;100.00;61776.25;5003731;28;20319;-82
2022/01/12 02:11:04;;;;;;;0.93;0.77;;;;;;;-141.59;100.00;61776.25;5007213;28;20290;-83
2022/01/12 02:13:34;;;;;;;1.10;1.00;;;;;;;-141.59;100.00;61776.25;5001257;28;20209;-83
2022/01/12 02:16:01;;;;;;;1.53;1.00;;;;;;;-141.59;100.00;61776.25;5004310;28;20203;-83
2022/01/12 02:18:41;;;;;;;0.80;0.80;;;;;;;-141.59;100.00;61776.25;5018588;28;20208;-83
2022/01/12 02:35:20;;;;;;;1.90;1.10;;;;;;;-141.59;100.00;61776.25;5000058;28;20204;-82
2022/01/12 02:40:39;;;;;;;0.80;0.80;;;;;;;-141.59;100.00;61776.25;5015599;28;20234;-82
2022/01/12 02:43:13;;;;;;;0.93;0.87;;;;;;;-141.59;100.00;61776.25;5002050;28;20227;-82
2022/01/12 02:51:14;;;;;;;1.60;0.90;;;;;;;-141.59;100.00;61776.25;5004509;28;20282;-82
2022/01/12 02:53:44;;;;;;;0.70;0.70;;;;;;;-141.59;100.00;61776.25;4998487;28;20212;-86
2022/01/12 02:56:16;;;;;;;2.80;1.00;;;;;;;-141.59;100.00;61776.25;5000053;28;20198;-86
2022/01/12 02:58:45;;;;;;;1.30;1.00;;;;;;;-141.59;100.00;61776.25;5002766;28;20235;-85
2022/01/12 03:04:04;;;;;;;2.37;1.10;;;;;;;-141.59;100.00;61776.25;4996831;28;20208;-82
2022/01/12 03:06:36;;;;;;;1.40;1.10;;;;;;;-141.59;100.00;61776.25;5002616;28;20255;-82
2022/01/12 03:09:06;;;;;;;1.97;1.10;;;;;;;-141.59;100.00;61776.25;5002990;28;20227;-82
2022/01/12 03:11:35;;;;;;;1.67;1.10;;;;;;;-141.59;100.00;61776.25;5005255;28;20206;-82
2022/01/12 03:14:11;;;;;;;1.07;0.93;;;;;;;-141.59;100.00;61776.25;5001865;28;20298;-82
2022/01/12 03:16:38;;;;;;;1.07;0.80;;;;;;;-141.59;100.00;61776.25;5008368;28;20265;-83
2022/01/12 03:19:11;;;;;;;0.73;0.73;;;;;;;-141.59;100.00;61776.25;5002201;28;20297;-83
2022/01/12 03:21:39;;;;;;;1.63;0.93;;;;;;;-141.59;100.00;61776.25;5011743;28;20210;-83
2022/01/12 03:24:07;;;;;;;2.10;1.10;;;;;;;-141.59;100.00;61776.25;5011641;28;20215;-82
2022/01/12 03:26:35;;;;;;;1.23;1.00;;;;;;;-141.59;100.00;61776.25;5004908;28;20251;-82
2022/01/12 03:29:04;;;;;;;1.27;0.90;;;;;;;-141.59;100.00;61776.25;5003378;28;20283;-82
2022/01/12 03:31:34;;;;;;;1.37;0.93;;;;;;;-141.59;100.00;61776.25;5000022;28;20207;-82
2022/01/12 03:34:07;;;;;;;1.00;0.90;;;;;;;-141.59;100.00;61776.25;5006242;28;20262;-85
2022/01/12 03:36:53;;;;;;;1.80;1.00;;;;;;;-141.59;100.00;61776.25;5008719;28;20208;-85
2022/01/12 03:39:22;;;;;;;0.90;0.90;;;;;;;-141.59;100.00;61776.25;5020075;28;20224;-86
2022/01/12 03:41:49;;;;;;;1.47;1.00;;;;;;;-141.59;100.00;61776.25;5007842;28;20204;-86
2022/01/12 03:44:18;;;;;;;1.23;1.00;;;;;;;-141.59;100.00;61776.25;5010266;28;20206;-86
2022/01/12 03:46:48;;;;;;;1.30;1.00;;;;;;;-141.59;100.00;61776.25;5003324;28;20216;-85
2022/01/12 03:49:19;;;;;;;1.13;0.97;;;;;;;-141.59;100.00;61776.25;5003771;28;20238;-85
2022/01/12 03:51:47;;;;;;;1.33;1.00;;;;;;;-141.59;100.00;61776.25;5018402;28;20224;-85
2022/01/12 03:54:15;;;;;;;1.43;0.90;;;;;;;-141.59;100.00;61776.25;5006944;28;20268;-85
2022/01/12 03:56:44;;;;;;;1.13;1.00;;;;;;;-141.59;100.00;61776.25;5002750;28;20221;-86
2022/01/12 03:59:11;;;;;;;1.40;1.00;;;;;;;-141.59;100.00;61776.25;5007693;28;20228;-85
2022/01/12 04:01:39;;;;;;;1.33;0.87;;;;;;;-141.59;100.00;61776.25;5008811;28;20300;-86
2022/01/12 04:04:11;;;;;;;1.00;0.90;;;;;;;-141.59;100.00;61776.25;5006510;28;20228;-85
2022/01/12 04:09:23;;;;;;;0.63;0.63;;;;;;;-141.59;100.00;61776.25;5004662;28;20216;-85
2022/01/12 04:11:52;;;;;;;1.50;1.10;;;;;;;-141.59;100.00;61776.25;5005832;28;20200;-85
2022/01/12 04:14:20;;;;;;;1.30;1.20;;;;;;;-141.59;100.00;61776.25;5008888;28;20214;-86
2022/01/12 04:16:47;;;;;;;1.23;0.97;;;;;;;-141.59;100.00;61776.25;5005951;28;20295;-86
2022/01/12 04:19:14;;;;;;;1.27;1.00;;;;;;;-141.59;100.00;61776.25;5006875;28;20208;-85
2022/01/12 04:21:47;;;;;;;1.20;1.10;;;;;;;-141.59;100.00;61776.25;5005268;28;20204;-85
2022/01/12 04:24:14;;;;;;;1.00;0.90;;;;;;;-141.59;100.00;61776.25;5001291;28;20219;-84
2022/01/12 04:26:41;;;;;;;0.87;0.80;;;;;;;-141.59;100.00;61776.25;5006742;28;20248;-85
2022/01/12 04:29:11;;;;;;;1.10;0.97;;;;;;;-141.59;100.00;61776.25;4999842;28;20235;-85
2022/01/12 04:31:38;;;;;;;0.97;0.90;;;;;;;-141.59;100.00;61776.25;5006101;28;20294;-86
2022/01/12 04:34:08;;;;;;;1.53;1.10;;;;;;;-141.59;100.00;61776.25;5006163;28;20200;-86
2022/01/12 04:36:35;;;;;;;2.10;1.20;;;;;;;-141.59;100.00;61776.25;5019860;28;20200;-85
2022/01/12 04:39:04;;;;;;;1.03;0.93;;;;;;;-141.59;100.00;61776.25;5004660;28;20465;-85
2022/01/12 04:41:31;;;;;;;1.30;1.00;;;;;;;-141.59;100.00;61776.25;5006228;28;20192;-85
2022/01/12 04:44:01;;;;;;;2.50;1.30;;;;;;;-141.59;100.00;61776.25;5008117;28;20208;-86
2022/01/12 04:46:36;;;;;;;2.33;1.50;;;;;;;-141.59;100.00;61776.25;4995027;28;20196;-85
2022/01/12 04:51:49;;;;;;;4.97;2.80;;;;;;;-141.59;100.00;61776.25;5007910;28;20203;-86
2022/01/12 04:54:17;;;;;;;4.50;2.40;;;;;;;-141.59;100.00;61776.25;5002070;28;20207;-86
2022/01/12 04:56:44;;;;;;;2.20;1.50;;;;;;;-141.59;100.00;61776.25;5006517;28;20207;-86
2022/01/12 04:59:11;;;;;;;1.77;1.20;;;;;;;-141.59;100.00;61776.25;5001393;28;20230;-86
2022/01/12 05:01:49;;;;;;;1.90;1.13;;;;;;;-141.59;100.00;61776.25;5004850;28;20314;-86
2022/01/12 05:07:25;;;;;;;0.93;0.90;;;;;;;-141.59;100.00;61776.25;5020835;28;20235;-86
2022/01/12 05:15:32;;;;;;;1.63;1.00;;;;;;;-141.59;100.00;61776.25;5002245;28;20203;-87
2022/01/12 05:18:00;;;;;;;1.50;1.17;;;;;;;-141.59;100.00;61776.25;5015191;28;20207;-85
2022/01/12 05:20:28;;;;;;;4.23;1.43;;;;;;;-141.59;100.00;61776.25;5023091;28;20191;-85
2022/01/12 05:22:55;;;;;;;1.23;0.83;;;;;;;-141.59;100.00;61776.25;5005757;28;20205;-86
2022/01/12 05:25:22;;;;;;;1.93;1.20;;;;;;;-141.59;100.00;61776.25;5003229;28;20201;-86
2022/01/12 05:27:49;;;;;;;1.07;0.97;;;;;;;-141.59;100.00;61776.25;5005498;28;20223;-87
2022/01/12 05:30:17;;;;;;;1.57;1.47;;;;;;;-141.59;100.00;61776.25;5003998;28;20226;-86
2022/01/12 05:32:46;;;;;;;1.97;1.00;;;;;;;-141.59;100.00;61776.25;5010693;28;20212;-85
2022/01/12 05:35:18;;;;;;;2.07;1.53;;;;;;;-141.59;100.00;61776.25;5003031;28;20212;-86
2022/01/12 05:37:45;;;;;;;1.73;1.23;;;;;;;-141.59;100.00;61776.25;4993715;28;20204;-86
2022/01/12 05:40:14;;;;;;;2.23;1.50;;;;;;;-141.59;100.00;61776.25;5003137;28;20273;-86
2022/01/12 05:42:43;;;;;;;2.50;1.67;;;;;;;-141.59;100.00;61776.25;5006187;28;20218;-85
2022/01/12 05:45:11;;;;;;;1.30;1.20;;;;;;;-141.59;100.00;61776.25;5001673;28;20206;-86
2022/01/12 05:49:34;;;;;;;1.43;1.20;;;;;;;-141.59;100.00;61776.25;5003378;28;20215;-86
2022/01/12 05:50:37;;;;;;;1.37;1.10;;;;;;;-141.59;100.00;61776.25;5001330;28;20211;-85
2022/01/12 05:53:11;;;;;;;1.53;1.13;;;;;;;-141.59;100.00;61776.25;5013515;28;20283;-87
2022/01/12 05:55:41;;;;;;;1.63;1.30;;;;;;;-141.59;100.00;61776.25;4999427;28;20217;-85
2022/01/12 05:58:09;;;;;;;2.63;1.40;;;;;;;-141.59;100.00;61776.25;5016537;28;20232;-85
2022/01/12 06:00:37;;;;;;;2.43;1.53;;;;;;;-141.59;100.00;61776.25;5006030;28;20254;-86
2022/01/12 06:03:04;;;;;;;2.87;1.80;;;;;;;-141.59;100.00;61776.25;5004835;28;20250;-85
2022/01/12 06:05:31;;;;;;;3.10;1.70;;;;;;;-141.59;100.00;61776.25;4998524;28;20212;-86
2022/01/12 06:08:01;;;;;;;1.93;1.30;;;;;;;-141.59;100.00;61776.25;4999895;28;20224;-85
2022/01/12 06:10:29;;;;;;;2.30;1.13;;;;;;;-141.59;100.00;61776.25;5014095;28;20336;-87
2022/01/12 06:12:57;;;;;;;1.43;1.17;;;;;;;-141.59;100.00;61776.25;5000583;28;20283;-85
2022/01/12 06:15:26;;;;;;;1.97;1.50;;;;;;;-141.59;100.00;61776.25;4997363;28;20204;-86
2022/01/12 06:17:54;;;;;;;2.87;1.43;;;;;;;-141.59;100.00;61776.25;5004062;28;20224;-86
2022/01/12 06:20:22;;;;;;;2.20;1.43;;;;;;;-141.59;100.00;61776.25;4997587;28;20249;-86
2022/01/12 06:23:20;;;;;;;2.50;1.87;;;;;;;-141.59;100.00;61776.25;4998507;28;20219;-85
2022/01/12 06:25:54;;;;;;;2.47;1.80;;;;;;;-141.59;100.00;61776.25;5003119;28;20217;-86
2022/01/12 06:28:35;;;;;;;3.93;1.83;;;;;;;-141.59;100.00;61776.25;5006504;28;20247;-86
2022/01/12 06:31:12;;;;;;;2.60;1.67;;;;;;;-141.59;100.00;61776.25;4999506;28;20284;-84
2022/01/12 06:33:41;;;;;;;2.70;1.90;;;;;;;-141.59;100.00;61776.25;5016485;28;20243;-86
2022/01/12 06:36:12;;;;;;;1.80;1.17;;;;;;;-141.59;100.00;61776.25;5020171;28;20223;-85
2022/01/12 06:38:40;;;;;;;1.87;1.30;;;;;;;-141.59;100.00;61776.25;5000835;28;20210;-86
2022/01/12 06:41:08;;;;;;;3.30;1.50;;;;;;;-141.59;100.00;61776.25;5002235;28;20256;-85
2022/01/12 06:43:37;;;;;;;3.03;1.80;;;;;;;-141.59;100.00;61776.25;5000937;28;20200;-86
2022/01/12 06:46:08;;;;;;;2.83;1.93;;;;;;;-141.59;100.00;61776.25;5021082;28;20208;-87
2022/01/12 06:48:37;;;;;;;2.67;1.80;;;;;;;-141.59;100.00;61776.25;4998828;28;20240;-87
2022/01/12 06:51:04;;;;;;;3.57;1.87;;;;;;;-141.59;100.00;61776.25;4998371;28;20208;-88
2022/01/12 06:53:32;;;;;;;4.80;1.83;;;;;;;-141.59;100.00;61776.25;5010992;28;20204;-86
2022/01/12 06:56:03;;;;;;;3.67;2.43;;;;;;;-141.59;100.00;61776.25;5012096;28;20206;-86
2022/01/12 06:58:33;;;;;;;3.43;2.37;;;;;;;-141.59;100.00;61776.25;4993626;28;20306;-87
2022/01/12 07:01:00;;;;;;;4.37;2.40;;;;;;;-141.59;100.00;61776.25;5007883;28;20215;-86
2022/01/12 07:03:32;;;;;;;2.67;2.30;;;;;;;-141.59;100.00;61776.25;5003794;28;20282;-87
2022/01/12 07:06:01;;;;;;;2.40;1.80;;;;;;;-141.59;100.00;61776.25;4995446;28;20212;-87
2022/01/12 07:08:29;;;;;;;1.70;1.40;;;;;;;-141.59;100.00;61776.25;4995263;28;20226;-88
2022/01/12 07:10:59;;;;;;;2.20;1.77;;;;;;;-141.59;100.00;61776.25;4995858;28;20256;-87
2022/01/12 07:13:28;;;;;;;3.40;1.60;;;;;;;-141.59;100.00;61776.25;4993249;28;20216;-87
2022/01/12 07:15:56;;;;;;;3.50;1.90;;;;;;;-141.59;100.00;61776.25;4999126;28;20208;-85
2022/01/12 07:18:25;;;;;;;1.77;1.53;;;;;;;-141.59;100.00;61776.25;4996950;28;20211;-87
2022/01/12 07:20:53;;;;;;;2.93;2.20;;;;;;;-141.59;100.00;61776.25;5009530;28;20196;-86
2022/01/12 07:23:20;;;;;;;2.47;1.63;;;;;;;-141.59;100.00;61776.25;5010245;28;20222;-86
2022/01/12 07:25:47;;;;;;;4.07;1.93;;;;;;;-141.59;100.00;61776.25;4997117;28;20214;-86
2022/01/12 07:28:14;;;;;;;4.00;2.40;;;;;;;-141.59;100.00;61776.25;4995162;28;20298;-88
2022/01/12 07:30:43;;;;;;;3.23;2.17;;;;;;;-141.59;100.00;61776.25;5008160;28;20334;-87
2022/01/12 07:33:10;;;;;;;4.03;2.20;;;;;;;-141.59;100.00;61776.25;4996491;28;20314;-84
2022/01/12 07:35:38;;;;;;;2.57;2.10;;;;;;;-141.59;100.00;61776.25;5010174;28;20200;-86
2022/01/12 07:38:05;;;;;;;2.90;1.90;;;;;;;-141.59;100.00;61776.25;4996292;28;20204;-88
2022/01/12 07:40:35;;;;;;;3.90;2.27;;;;;;;-141.59;100.00;61776.25;5009973;28;20213;-87
2022/01/12 07:43:03;;;;;;;2.97;2.30;;;;;;;-141.59;100.00;61776.25;5002194;28;20211;-89
2022/01/12 07:45:31;;;;;;;2.57;2.00;;;;;;;-141.59;100.00;61776.25;4992708;28;20204;-87
2022/01/12 07:47:59;;;;;;;3.27;2.53;;;;;;;-141.59;100.00;61776.25;5013093;28;20312;-87
2022/01/12 07:50:27;;;;;;;3.03;2.70;;;;;;;-141.59;100.00;61776.25;4996496;28;20289;-88
2022/01/12 07:52:54;;;;;;;2.53;2.10;;;;;;;-141.59;100.00;61776.25;4992665;28;20218;-89
2022/01/12 07:55:21;;;;;;;3.03;2.47;;;;;;;-141.59;100.00;61776.25;4990697;28;20208;-87
2022/01/12 07:57:48;;;;;;;5.83;2.73;;;;;;;-141.59;100.00;61776.25;4996717;28;20254;-86
2022/01/12 08:00:17;;;;;;;4.50;2.40;;;;;;;-141.59;100.00;61776.25;4992333;28;20302;-89
2022/01/12 08:02:44;;;;;;;4.27;2.10;;;;;;;-141.59;100.00;61776.25;5012839;28;20200;-87
2022/01/12 08:05:13;;;;;;;4.10;2.43;;;;;;;-141.59;100.00;61776.25;5012068;28;20250;-86
2022/01/12 08:07:40;;;;;;;6.23;2.73;;;;;;;-141.59;100.00;61776.25;4995766;28;20208;-86
2022/01/12 08:10:09;;;;;;;7.63;3.60;;;;;;;-141.59;100.00;61776.25;4996202;28;20227;-89
2022/01/12 08:12:37;;;;;;;6.53;3.37;;;;;;;-141.59;100.00;61776.25;4995382;28;20203;-88
2022/01/12 08:15:06;;;;;;;5.57;3.30;;;;;;;-141.59;100.00;61776.25;4995578;28;20207;-86
2022/01/12 08:17:34;;;;;;;6.83;3.50;;;;;;;-141.59;100.00;61776.25;4996335;28;20200;-87
2022/01/12 08:20:01;;;;;;;8.97;4.87;;;;;;;-141.59;100.00;61776.25;4994813;28;20239;-88
2022/01/12 08:22:30;;;;;;;9.50;4.97;;;;;;;-141.59;100.00;61776.25;4995856;28;20306;-88
2022/01/12 08:24:58;;;;;;;8.63;5.10;;;;;;;-141.59;100.00;61776.25;4992430;28;20215;-88
2022/01/12 08:27:25;;;;;;;7.50;4.27;;;;;;;-141.59;100.00;61776.25;4994298;28;20195;-88
2022/01/12 08:29:59;;;;;;;7.80;4.20;;;;;;;-141.59;100.00;61776.25;5012079;28;20326;-86
2022/01/12 08:32:26;;;;;;;9.37;4.70;;;;;;;-141.59;100.00;61776.25;4995681;28;20217;-87
2022/01/12 08:34:53;;;;;;;6.03;3.73;;;;;;;-141.59;100.00;61776.25;4994373;28;20208;-87
2022/01/12 08:37:20;;;;;;;7.77;4.07;;;;;;;-141.59;100.00;61776.25;5014639;28;20270;-87
2022/01/12 08:39:49;;;;;;;8.63;4.10;;;;;;;-141.59;100.00;61776.25;4994780;28;20253;-87
2022/01/12 08:42:16;;;;;;;6.93;4.13;;;;;;;-141.59;100.00;61776.25;4994374;28;20339;-87
2022/01/12 08:44:43;;;;;;;5.47;3.67;;;;;;;-141.59;100.00;61776.25;4992301;28;20208;-87
2022/01/12 08:47:11;;;;;;;6.33;3.50;;;;;;;-141.59;100.00;61776.25;4994540;28;20294;-87
2022/01/12 08:49:38;;;;;;;6.57;3.30;;;;;;;-141.59;100.00;61776.25;4993553;28;20342;-87
2022/01/12 08:52:07;;;;;;;6.07;3.57;;;;;;;-141.59;100.00;61776.25;5001041;28;20231;-87
2022/01/12 08:54:35;;;;;;;3.87;2.80;;;;;;;-141.59;100.00;61776.25;4991616;28;20234;-87
2022/01/12 08:57:04;;;;;;;6.27;3.53;;;;;;;-141.59;100.00;61776.25;4997533;28;20199;-86
2022/01/12 08:59:31;;;;;;;6.03;3.30;;;;;;;-141.59;100.00;61776.25;4992990;28;20797;-88
2022/01/12 09:01:58;;;;;;;6.43;3.60;;;;;;;-141.59;100.00;61776.25;4992093;28;20196;-86
2022/01/12 09:04:27;;;;;;;5.17;3.07;;;;;;;-141.59;100.00;61776.25;4995423;28;20516;-87
2022/01/12 09:06:54;;;;;;;6.70;3.10;;;;;;;-141.59;100.00;61776.25;4993956;28;20200;-88
2022/01/12 09:09:22;;;;;;;6.50;3.00;;;;;;;-141.59;100.00;61776.25;5010952;28;20223;-87
2022/01/12 09:11:49;;;;;;;5.13;2.97;;;;;;;-141.59;100.00;61776.25;4991956;28;20203;-86
2022/01/12 09:14:18;;;;;;;4.03;2.50;;;;;;;-141.59;100.00;61776.25;4995555;28;20235;-88
2022/01/12 09:16:45;;;;;;;5.17;3.00;;;;;;;-141.59;100.00;61776.25;4995427;28;20231;-87
2022/01/12 09:19:13;;;;;;;5.17;3.20;;;;;;;-141.59;100.00;61776.25;5000976;28;20277;-87
2022/01/12 09:21:40;;;;;;;5.30;2.77;;;;;;;-141.59;100.00;61776.25;4994532;28;20235;-87
2022/01/12 09:24:07;;;;;;;4.43;3.20;;;;;;;-141.59;100.00;61776.25;5010438;28;20208;-87
2022/01/12 09:26:34;;;;;;;4.20;3.13;;;;;;;-141.59;100.00;61776.25;4998922;28;20212;-88
2022/01/12 09:29:02;;;;;;;4.87;2.60;;;;;;;-141.59;100.00;61776.25;4994130;28;20227;-88
2022/01/12 09:31:30;;;;;;;3.80;2.57;;;;;;;-141.59;100.00;61776.25;4997360;28;20215;-86
2022/01/12 09:33:58;;;;;;;3.27;2.30;;;;;;;-141.59;100.00;61776.25;5001024;28;20208;-87
2022/01/12 09:36:25;;;;;;;4.87;2.67;;;;;;;-141.59;100.00;61776.25;5011697;28;20225;-88
2022/01/12 09:38:53;;;;;;;12.97;4.67;;;;;;;-141.59;100.00;61776.25;5000535;28;20205;-87
2022/01/12 09:41:24;;;;;;;5.03;2.90;;;;;;;-141.59;100.00;61776.25;4995159;28;20283;-87
2022/01/12 09:43:51;;;;;;;3.17;2.13;;;;;;;-141.59;100.00;61776.25;4996200;28;20213;-84
2022/01/12 09:46:19;;;;;;;3.97;2.50;;;;;;;-141.59;100.00;61776.25;4996650;28;20263;-86
2022/01/12 09:48:47;;;;;;;2.70;2.27;;;;;;;-141.59;100.00;61776.25;4999937;28;20279;-84
2022/01/12 09:51:15;;;;;;;5.17;2.47;;;;;;;-141.59;100.00;61776.25;4998563;28;20250;-86
2022/01/12 09:53:42;;;;;;;5.47;2.37;;;;;;;-141.59;100.00;61776.25;4998161;28;20213;-86
2022/01/12 09:56:16;;;;;;;4.87;2.50;;;;;;;-141.59;100.00;61776.25;5010045;28;20207;-86
2022/01/12 09:58:44;;;;;;;10.60;2.10;;;;;;;-141.59;100.00;61776.25;5008103;28;20207;-85
2022/01/12 10:01:12;;;;;;;2.63;1.97;;;;;;;-141.59;100.00;61776.25;4999963;28;20225;-86
2022/01/12 10:03:39;;;;;;;4.03;2.20;;;;;;;-141.59;100.00;61776.25;5001949;28;20200;-86
2022/01/12 10:06:15;;;;;;;3.57;2.13;;;;;;;-141.59;100.00;61776.25;5023183;28;20209;-86
2022/01/12 10:08:43;;;;;;;5.20;2.00;;;;;;;-141.59;100.00;61776.25;5009888;28;20219;-86
2022/01/12 10:11:12;;;;;;;5.77;1.83;;;;;;;-141.59;100.00;61776.25;4995495;28;20215;-86
2022/01/12 10:13:42;;;;;;;2.83;1.80;;;;;;;-141.59;100.00;61776.25;4993346;28;20265;-86
2022/01/12 10:16:15;;;;;;;4.90;1.80;;;;;;;-141.59;100.00;61776.25;4997879;28;20206;-87
2022/01/12 10:18:50;;;;;;;2.53;1.70;;;;;;;-141.59;100.00;61776.25;4996577;28;20208;-85
2022/01/12 10:21:31;;;;;;;3.80;1.33;;;;;;;-141.59;100.00;61776.25;5013693;28;20273;-86
2022/01/12 10:24:01;;;;;;;2.63;1.83;;;;;;;-141.59;100.00;61776.25;4994224;28;20232;-86
2022/01/12 10:26:34;;;;;;;1.70;1.40;;;;;;;-141.59;100.00;61776.25;5009868;28;20308;-86
2022/01/12 10:29:07;;;;;;;2.90;1.90;;;;;;;-141.59;100.00;61776.25;4995855;28;20231;-86
2022/01/12 10:31:54;;;;;;;4.63;1.70;;;;;;;-141.59;100.00;61776.25;5010122;28;20203;-85
2022/01/12 10:34:24;;;;;;;3.23;1.60;;;;;;;-141.59;100.00;61776.25;4992779;28;20266;-86
2022/01/12 10:36:53;;;;;;;5.20;2.10;;;;;;;-141.59;100.00;61776.25;4993631;28;20227;-86
2022/01/12 10:39:23;;;;;;;5.27;1.60;;;;;;;-141.59;100.00;61776.25;4991416;28;20297;-85
2022/01/12 10:41:57;;;;;;;2.83;1.50;;;;;;;-141.59;100.00;61776.25;5011833;28;20213;-86
2022/01/12 10:44:27;;;;;;;2.53;1.60;;;;;;;-141.59;100.00;61776.25;4992972;28;20220;-85
2022/01/12 10:47:13;;;;;;;6.00;2.33;;;;;;;-141.59;100.00;61776.25;4989726;28;20219;-85
2022/01/12 10:49:43;;;;;;;6.17;1.83;;;;;;;-141.59;100.00;61776.25;4993138;28;20227;-86
2022/01/12 10:52:13;;;;;;;2.77;1.70;;;;;;;-141.59;100.00;61776.25;4993406;28;20207;-85
2022/01/12 10:54:46;;;;;;;3.20;1.23;;;;;;;-141.59;100.00;61776.25;5009307;28;20212;-85
2022/01/12 10:57:22;;;;;;;2.03;1.50;;;;;;;-141.59;100.00;61776.25;4991094;28;20214;-86
2022/01/12 11:00:08;;;;;;;3.97;1.53;;;;;;;-141.59;100.00;61776.25;4994887;28;20195;-86
2022/01/12 11:02:39;;;;;;;3.20;1.43;;;;;;;-141.59;100.00;61776.25;4995520;28;20215;-85
2022/01/12 11:05:08;;;;;;;1.90;1.57;;;;;;;-141.59;100.00;61776.25;4990513;28;20211;-85
2022/01/12 11:07:37;;;;;;;6.23;2.00;;;;;;;-141.59;100.00;61776.25;5009095;28;20302;-84
2022/01/12 11:10:09;;;;;;;6.30;1.80;;;;;;;-141.59;100.00;61776.25;4999966;28;20457;-85
2022/01/12 11:12:37;;;;;;;4.57;2.17;;;;;;;-141.59;100.00;61776.25;5003805;28;20213;-85
2022/01/12 11:15:07;;;;;;;1.70;1.33;;;;;;;-141.59;100.00;61776.25;4999433;28;20342;-85
2022/01/12 11:17:38;;;;;;;4.00;1.60;;;;;;;-141.59;100.00;61776.25;5000603;28;20200;-84
2022/01/12 11:20:12;;;;;;;6.77;1.87;;;;;;;-141.59;100.00;61776.25;4990318;28;20208;-85
2022/01/12 11:22:50;;;;;;;6.73;1.80;;;;;;;-141.59;100.00;61776.25;4990539;28;20295;-84
2022/01/12 11:25:20;;;;;;;5.67;1.77;;;;;;;-141.59;100.00;61776.25;5006803;28;20269;-84
2022/01/12 11:27:51;;;;;;;3.37;1.73;;;;;;;-141.59;100.00;61776.25;4989763;28;20318;-84
2022/01/12 11:30:23;;;;;;;6.50;1.80;;;;;;;-141.59;100.00;61776.25;4992672;28;20245;-84
2022/01/12 11:32:57;;;;;;;6.90;1.60;;;;;;;-141.59;100.00;61776.25;4994830;28;20215;-84
2022/01/12 11:35:30;;;;;;;3.27;1.73;;;;;;;-141.59;100.00;61776.25;5009091;28;21527;-84
2022/01/12 11:37:59;;;;;;;2.37;1.60;;;;;;;-141.59;100.00;61776.25;4996112;28;20207;-84
2022/01/12 11:40:38;;;;;;;5.67;1.50;;;;;;;-141.59;100.00;61776.25;4996570;28;20204;-84
2022/01/12 11:43:17;;;;;;;2.17;1.43;;;;;;;-141.59;100.00;61776.25;4995451;28;20199;-84
2022/01/12 11:45:45;;;;;;;1.93;1.50;;;;;;;-141.59;100.00;61776.25;4991935;28;20211;-84
2022/01/12 11:48:12;;;;;;;1.87;1.33;;;;;;;-141.59;100.00;61776.25;4994231;28;20295;-84
2022/01/12 11:50:39;;;;;;;5.03;1.60;;;;;;;-141.59;100.00;61776.25;5011517;28;20344;-84
2022/01/12 11:53:08;;;;;;;2.73;1.30;;;;;;;-141.59;100.00;61776.25;5010312;28;20246;-84
2022/01/12 11:55:40;;;;;;;2.03;1.40;;;;;;;-141.59;100.00;61776.25;4995786;28;20219;-84
2022/01/12 11:58:17;;;;;;;2.33;1.60;;;;;;;-141.59;100.00;61776.25;4993304;28;20278;-84
2022/01/12 12:00:45;;;;;;;1.60;1.37;;;;;;;-141.59;100.00;61776.25;4992839;28;20225;-84
2022/01/12 12:03:18;;;;;;;2.07;1.50;;;;;;;-141.59;100.00;61776.25;4990742;28;20268;-84
2022/01/12 12:05:45;;;;;;;2.37;1.40;;;;;;;-141.59;100.00;61776.25;5012803;28;20206;-84
2022/01/12 12:08:25;;;;;;;5.13;1.23;;;;;;;-141.59;100.00;61776.25;4992642;28;20485;-84
2022/01/12 12:10:54;;;;;;;1.17;0.93;;;;;;;-141.59;100.00;61776.25;4991920;28;20351;-83
2022/01/12 12:13:22;;;;;;;5.43;1.30;;;;;;;-141.59;100.00;61776.25;4995242;28;20266;-83
2022/01/12 12:15:51;;;;;;;4.37;1.43;;;;;;;-141.59;100.00;61776.25;4993194;28;20235;-83
2022/01/12 12:18:18;;;;;;;4.33;1.70;;;;;;;-141.59;100.00;61776.25;4991726;28;20271;-84
2022/01/12 12:20:46;;;;;;;6.03;1.50;;;;;;;-141.59;100.00;61776.25;4992569;28;20309;-83
2022/01/12 12:23:14;;;;;;;2.77;1.80;;;;;;;-141.59;100.00;61776.25;5007413;28;20211;-83